Time;durP1;ratioP1;P1;durP2;ratioP2;P2;SDS_P1;SDS_P2;PMS_P1;PMS_P2;Temp;Humidity;BMP_temperature;BMP_pressure;BME280_temperature;BME280_humidity;BME280_pressure;Samples;Min_cycle;Max_cycle;Signal;HPM_P1;HPM_P2
2021/11/01 00:00:19;;;;;;;7.82;6.15;;;13.00;99.90;;;;;;5053681;28;20298;-75
2021/11/01 00:02:49;;;;;;;7.75;6.53;;;13.10;99.90;;;;;;5053642;28;20224;-74
2021/11/01 00:05:17;;;;;;;7.25;6.40;;;13.20;99.90;;;;;;5053775;28;20589;-75
2021/11/01 00:07:44;;;;;;;6.78;6.07;;;13.20;99.90;;;;;;5053778;28;20299;-75
2021/11/01 00:10:12;;;;;;;8.05;6.30;;;13.20;99.90;;;;;;5053775;28;20199;-75
2021/11/01 00:12:40;;;;;;;7.25;5.80;;;13.30;99.90;;;;;;5053197;28;20327;-74
2021/11/01 00:15:08;;;;;;;7.72;6.00;;;13.40;99.90;;;;;;5053674;28;20286;-75
2021/11/01 00:17:35;;;;;;;7.57;5.55;;;13.50;99.90;;;;;;5053632;28;20215;-75
2021/11/01 00:20:04;;;;;;;7.18;5.13;;;13.40;99.90;;;;;;5053521;28;20680;-75
2021/11/01 00:22:31;;;;;;;5.85;5.25;;;13.40;99.90;;;;;;5053441;28;20230;-75
2021/11/01 00:24:58;;;;;;;6.75;5.50;;;13.40;99.90;;;;;;5053206;28;20656;-75
2021/11/01 00:27:25;;;;;;;7.55;5.53;;;13.30;99.90;;;;;;5053526;28;20257;-75
2021/11/01 00:29:53;;;;;;;7.63;5.80;;;13.30;99.90;;;;;;5053545;28;20289;-74
2021/11/01 00:32:20;;;;;;;6.68;5.80;;;13.30;99.90;;;;;;5053254;28;20222;-74
2021/11/01 00:34:47;;;;;;;9.25;7.15;;;13.30;99.90;;;;;;5053450;28;20567;-75
2021/11/01 00:37:14;;;;;;;7.93;6.40;;;13.30;99.90;;;;;;5053471;28;20217;-75
2021/11/01 00:39:40;;;;;;;7.25;6.15;;;13.30;99.90;;;;;;5053301;28;20234;-75
2021/11/01 00:42:10;;;;;;;7.30;6.05;;;13.30;99.90;;;;;;5053191;28;20235;-74
2021/11/01 00:44:37;;;;;;;6.88;6.18;;;13.30;99.90;;;;;;5053314;28;20593;-75
2021/11/01 00:47:05;;;;;;;8.85;6.43;;;13.30;99.90;;;;;;5053348;28;20214;-75
2021/11/01 00:49:32;;;;;;;8.50;6.47;;;13.20;99.90;;;;;;5053331;28;20203;-75
2021/11/01 00:52:00;;;;;;;8.50;5.60;;;13.20;99.90;;;;;;5052971;28;20709;-75
2021/11/01 00:54:27;;;;;;;6.05;4.68;;;13.20;99.90;;;;;;5053060;28;20206;-75
2021/11/01 00:56:54;;;;;;;6.65;5.00;;;13.20;99.90;;;;;;5053640;28;20218;-75
2021/11/01 00:59:21;;;;;;;7.80;5.50;;;13.20;99.90;;;;;;5052940;28;20294;-75
2021/11/01 01:01:49;;;;;;;7.85;4.85;;;13.30;99.90;;;;;;5052888;28;20219;-75
2021/11/01 01:04:18;;;;;;;6.18;4.55;;;13.30;99.90;;;;;;5053089;28;20223;-75
2021/11/01 01:06:45;;;;;;;2.67;2.13;;;13.30;99.90;;;;;;5053065;28;20203;-75
2021/11/01 01:09:12;;;;;;;2.10;1.52;;;13.40;99.90;;;;;;5056694;28;20298;-75
2021/11/01 01:11:39;;;;;;;1.10;1.10;;;13.70;99.90;;;;;;5056888;28;20314;-74
2021/11/01 01:14:06;;;;;;;1.33;0.95;;;14.10;99.90;;;;;;5057016;28;20290;-75
2021/11/01 01:16:39;;;;;;;3.47;1.00;;;14.50;99.90;;;;;;5056962;28;20204;-75
2021/11/01 01:19:14;;;;;;;1.15;0.80;;;14.90;99.90;;;;;;5056877;28;20209;-75
2021/11/01 01:24:27;;;;;;;0.90;0.90;;;15.40;99.90;;;;;;5056885;28;20222;-75
2021/11/01 01:26:54;;;;;;;0.60;0.60;;;15.70;99.90;;;;;;5056761;28;20248;-75
2021/11/01 01:29:21;;;;;;;0.85;0.77;;;15.90;99.90;;;;;;5056720;28;20720;-75
2021/11/01 01:31:48;;;;;;;0.82;0.70;;;16.00;99.90;;;;;;5056259;28;20226;-75
2021/11/01 01:34:15;;;;;;;0.95;0.95;;;16.20;99.90;;;;;;5056641;28;20199;-75
2021/11/01 01:36:45;;;;;;;0.70;0.70;;;16.30;99.90;;;;;;5056627;28;20208;-75
2021/11/01 01:39:12;;;;;;;1.45;0.80;;;16.30;99.90;;;;;;5056573;28;20214;-75
2021/11/01 01:41:44;;;;;;;1.10;1.10;;;16.40;99.90;;;;;;5056182;28;20223;-75
2021/11/01 01:44:11;;;;;;;1.27;0.80;;;16.40;99.90;;;;;;5056396;28;20249;-75
2021/11/01 01:46:38;;;;;;;1.10;1.10;;;16.40;99.90;;;;;;5056409;28;20289;-75
2021/11/01 01:49:05;;;;;;;1.25;0.80;;;16.50;99.90;;;;;;5056130;28;20212;-75
2021/11/01 01:51:33;;;;;;;1.58;1.38;;;16.50;99.90;;;;;;5055988;28;20254;-75
2021/11/01 01:54:01;;;;;;;1.15;1.10;;;16.50;99.90;;;;;;5056283;28;20228;-75
2021/11/01 01:56:28;;;;;;;1.33;1.00;;;16.50;99.90;;;;;;5056231;28;20204;-75
2021/11/01 02:01:41;;;;;;;1.60;1.38;;;16.30;99.90;;;;;;5055663;28;20778;-74
2021/11/01 02:04:08;;;;;;;1.90;1.80;;;16.30;99.90;;;;;;5056049;28;20623;-74
2021/11/01 02:07:14;;;;;;;1.88;1.35;;;16.10;99.90;;;;;;5056048;28;20305;-75
2021/11/01 02:09:50;;;;;;;2.92;1.45;;;15.90;99.90;;;;;;5050906;28;20232;-75
2021/11/01 02:12:20;;;;;;;1.30;1.20;;;15.80;99.90;;;;;;5055719;28;20315;-75
2021/11/01 02:14:53;;;;;;;1.00;0.80;;;15.70;99.90;;;;;;5055791;28;20202;-75
2021/11/01 02:17:24;;;;;;;0.70;0.70;;;15.60;99.90;;;;;;5055880;28;20210;-75
2021/11/01 02:19:53;;;;;;;1.10;0.75;;;15.50;99.90;;;;;;5054747;28;20197;-74
2021/11/01 02:22:31;;;;;;;1.67;0.47;;;15.20;99.90;;;;;;5055521;28;20252;-74
2021/11/01 02:25:03;;;;;;;1.10;0.57;;;15.10;99.90;;;;;;5055532;28;20691;-75
2021/11/01 02:27:35;;;;;;;0.75;0.50;;;14.90;99.90;;;;;;5055602;28;20204;-75
2021/11/01 02:30:03;;;;;;;0.40;0.30;;;14.90;99.90;;;;;;5055620;28;20205;-75
2021/11/01 02:32:32;;;;;;;0.60;0.40;;;14.90;99.90;;;;;;5055376;28;20233;-74
2021/11/01 02:34:59;;;;;;;0.50;0.50;;;14.80;99.90;;;;;;5055521;28;20204;-75
2021/11/01 02:37:25;;;;;;;0.38;0.30;;;14.80;99.90;;;;;;5055315;28;20300;-75
2021/11/01 02:39:55;;;;;;;0.50;0.50;;;14.80;99.90;;;;;;5055451;28;20231;-75
2021/11/01 02:42:23;;;;;;;0.73;0.60;;;14.70;99.90;;;;;;5055002;28;20599;-74
2021/11/01 02:44:57;;;;;;;1.10;0.60;;;14.60;99.90;;;;;;5055280;28;20225;-75
2021/11/01 02:47:26;;;;;;;1.20;0.60;;;14.60;99.90;;;;;;5055352;28;20299;-75
2021/11/01 02:49:53;;;;;;;0.80;0.68;;;14.50;99.90;;;;;;5055072;28;20210;-75
2021/11/01 02:52:20;;;;;;;0.85;0.77;;;14.40;99.90;;;;;;5054674;28;20220;-74
2021/11/01 02:54:48;;;;;;;0.70;0.50;;;14.30;99.90;;;;;;5055154;28;20196;-75
2021/11/01 02:57:15;;;;;;;0.70;0.65;;;14.30;99.90;;;;;;5055058;28;20247;-74
2021/11/01 02:59:42;;;;;;;0.88;0.50;;;14.30;99.90;;;;;;5054899;28;20215;-75
2021/11/01 03:02:10;;;;;;;0.50;0.40;;;14.10;99.90;;;;;;5054812;28;20259;-74
2021/11/01 03:04:37;;;;;;;1.25;0.50;;;14.00;99.90;;;;;;5054889;28;20250;-74
2021/11/01 03:07:05;;;;;;;0.82;0.57;;;13.50;99.90;;;;;;5054953;28;20630;-74
2021/11/01 03:09:34;;;;;;;0.55;0.40;;;13.50;99.90;;;;;;5054525;28;20290;-74
2021/11/01 03:12:05;;;;;;;3.53;0.30;;;13.50;99.90;;;;;;5054613;28;20227;-74
2021/11/01 03:14:40;;;;;;;0.75;0.50;;;13.50;99.90;;;;;;5054826;28;20211;-75
2021/11/01 03:17:11;;;;;;;1.77;0.50;;;13.50;99.90;;;;;;5054534;28;20294;-75
2021/11/01 03:19:41;;;;;;;1.33;0.70;;;13.50;99.90;;;;;;5054725;28;20208;-75
2021/11/01 03:22:08;;;;;;;0.40;0.35;;;13.60;99.90;;;;;;5054209;28;20262;-74
2021/11/01 03:24:39;;;;;;;0.40;0.32;;;13.60;99.90;;;;;;5054418;28;20207;-74
2021/11/01 03:27:08;;;;;;;0.63;0.30;;;13.40;99.90;;;;;;5054361;28;20207;-75
2021/11/01 03:29:36;;;;;;;0.50;0.50;;;13.40;99.90;;;;;;5054334;28;20210;-74
2021/11/01 03:32:06;;;;;;;0.60;0.40;;;13.30;99.90;;;;;;5053834;28;20313;-74
2021/11/01 03:34:35;;;;;;;1.02;0.52;;;13.30;99.90;;;;;;5054297;28;20250;-75
2021/11/01 03:37:09;;;;;;;0.40;0.40;;;13.20;99.90;;;;;;5054345;28;20294;-74
2021/11/01 03:39:36;;;;;;;0.55;0.40;;;12.90;99.90;;;;;;5054831;28;20595;-74
2021/11/01 03:42:04;;;;;;;1.38;0.50;;;13.00;99.90;;;;;;5054198;28;20297;-74
2021/11/01 03:44:33;;;;;;;1.40;0.60;;;13.00;99.90;;;;;;5054206;28;20294;-74
2021/11/01 03:47:02;;;;;;;1.17;0.70;;;13.00;99.90;;;;;;5054079;28;20273;-74
2021/11/01 03:49:32;;;;;;;1.60;0.40;;;12.90;99.90;;;;;;5054169;28;20206;-74
2021/11/01 03:52:13;;;;;;;1.40;0.60;;;12.80;99.90;;;;;;5053557;28;20771;-74
2021/11/01 03:54:40;;;;;;;0.95;0.90;;;12.80;99.90;;;;;;5053960;28;20215;-74
2021/11/01 03:57:09;;;;;;;1.75;0.50;;;12.80;99.90;;;;;;5053989;28;20207;-74
2021/11/01 03:59:37;;;;;;;4.57;2.13;;;12.70;99.90;;;;;;5053840;28;20215;-74
2021/11/01 04:02:05;;;;;;;0.63;0.63;;;12.70;99.90;;;;;;5053736;28;20224;-74
2021/11/01 04:04:31;;;;;;;0.70;0.50;;;12.80;99.90;;;;;;5053880;28;20199;-74
2021/11/01 04:07:00;;;;;;;0.95;0.70;;;12.90;99.90;;;;;;5053774;28;20316;-74
2021/11/01 04:09:28;;;;;;;0.47;0.45;;;12.90;99.90;;;;;;5053712;28;20210;-74
2021/11/01 04:11:56;;;;;;;0.95;0.47;;;13.00;99.90;;;;;;5053357;28;20775;-74
2021/11/01 04:14:28;;;;;;;0.63;0.40;;;12.90;99.90;;;;;;5053647;28;20302;-74
2021/11/01 04:16:59;;;;;;;1.40;0.75;;;12.90;99.90;;;;;;5053703;28;20210;-74
2021/11/01 04:19:43;;;;;;;1.65;0.50;;;12.90;99.90;;;;;;5053530;28;20207;-74
2021/11/01 04:22:26;;;;;;;0.50;0.43;;;12.90;99.90;;;;;;5053189;28;20224;-74
2021/11/01 04:24:53;;;;;;;0.40;0.40;;;12.90;99.90;;;;;;5053536;28;20242;-74
2021/11/01 04:27:20;;;;;;;1.98;0.68;;;12.80;99.90;;;;;;5053370;28;20666;-74
2021/11/01 04:29:47;;;;;;;3.70;0.60;;;12.80;99.90;;;;;;5053528;28;20571;-74
2021/11/01 04:32:22;;;;;;;1.95;0.50;;;12.70;99.90;;;;;;5053370;28;20223;-74
2021/11/01 04:34:56;;;;;;;0.88;0.60;;;12.50;99.90;;;;;;5053500;28;20260;-74
2021/11/01 04:37:24;;;;;;;0.82;0.73;;;12.60;99.90;;;;;;5053959;28;20215;-74
2021/11/01 04:40:17;;;;;;;0.60;0.60;;;12.60;99.90;;;;;;5053235;28;20300;-74
2021/11/01 04:43:15;;;;;;;2.92;0.90;;;12.50;99.90;;;;;;5054262;28;20323;-74
2021/11/01 04:53:56;;;;;;;1.00;0.60;;;12.60;99.90;;;;;;5057465;28;20252;-74
2021/11/01 04:56:26;;;;;;;1.35;0.60;;;12.50;99.90;;;;;;5057392;28;20238;-74
2021/11/01 04:58:53;;;;;;;0.77;0.57;;;12.50;99.90;;;;;;5057306;28;20207;-74
2021/11/01 05:01:23;;;;;;;0.75;0.70;;;12.60;99.90;;;;;;5056787;28;20239;-74
2021/11/01 05:03:53;;;;;;;4.10;0.60;;;12.70;99.90;;;;;;5057229;28;20210;-74
2021/11/01 05:06:22;;;;;;;0.75;0.70;;;12.50;99.90;;;;;;5056806;28;20315;-74
2021/11/01 05:08:53;;;;;;;1.30;0.85;;;12.50;99.90;;;;;;5057167;28;20204;-74
2021/11/01 05:11:29;;;;;;;0.75;0.75;;;12.40;99.90;;;;;;5056643;28;20226;-74
2021/11/01 05:13:57;;;;;;;0.70;0.68;;;12.50;99.90;;;;;;5057170;28;20203;-74
2021/11/01 05:16:33;;;;;;;1.10;0.88;;;12.60;99.90;;;;;;5057028;28;20207;-74
2021/11/01 05:19:05;;;;;;;0.65;0.63;;;12.70;99.90;;;;;;5056950;28;20278;-75
2021/11/01 05:21:34;;;;;;;5.07;1.00;;;12.60;99.90;;;;;;5056475;28;20231;-74
2021/11/01 05:24:03;;;;;;;1.38;0.68;;;12.40;99.90;;;;;;5056786;28;20295;-75
2021/11/01 05:26:51;;;;;;;0.80;0.73;;;12.40;99.90;;;;;;5056776;28;20332;-75
2021/11/01 05:29:19;;;;;;;0.98;0.63;;;12.50;99.90;;;;;;5056756;28;20265;-75
2021/11/01 05:31:48;;;;;;;0.65;0.60;;;12.40;99.90;;;;;;5056543;28;20220;-74
2021/11/01 05:34:17;;;;;;;0.75;0.70;;;12.50;99.90;;;;;;5056524;28;20204;-75
2021/11/01 05:36:44;;;;;;;1.20;0.77;;;12.40;99.90;;;;;;5056528;28;20207;-74
2021/11/01 05:39:11;;;;;;;2.15;0.73;;;12.40;99.90;;;;;;5056584;28;20303;-74
2021/11/01 05:41:39;;;;;;;1.05;0.60;;;12.40;99.90;;;;;;5056029;28;20230;-74
2021/11/01 05:44:08;;;;;;;1.25;0.65;;;12.40;99.90;;;;;;5056524;28;20239;-74
2021/11/01 05:46:37;;;;;;;4.13;0.60;;;12.40;99.90;;;;;;5056396;28;20223;-75
2021/11/01 05:49:06;;;;;;;0.85;0.68;;;12.30;99.90;;;;;;5056215;28;20203;-75
2021/11/01 05:51:34;;;;;;;0.80;0.70;;;12.30;99.90;;;;;;5056061;28;20255;-74
2021/11/01 05:54:05;;;;;;;2.30;0.77;;;12.30;99.90;;;;;;5056184;28;20199;-75
2021/11/01 05:56:38;;;;;;;0.95;0.73;;;12.40;99.90;;;;;;5056237;28;20661;-74
2021/11/01 05:59:15;;;;;;;3.25;0.70;;;12.50;99.90;;;;;;5056178;28;20628;-74
2021/11/01 06:04:32;;;;;;;0.63;0.63;;;12.40;99.90;;;;;;5055856;28;20199;-75
2021/11/01 06:07:06;;;;;;;0.95;0.65;;;12.40;99.90;;;;;;5055771;28;20230;-75
2021/11/01 06:09:52;;;;;;;1.58;0.85;;;12.30;99.90;;;;;;5056085;28;20207;-75
2021/11/01 06:15:05;;;;;;;0.45;0.43;;;12.40;99.90;;;;;;5055924;28;20283;-75
2021/11/01 06:17:32;;;;;;;1.58;0.70;;;12.50;99.90;;;;;;5055832;28;20211;-75
2021/11/01 06:19:59;;;;;;;0.90;0.80;;;12.60;99.90;;;;;;5055836;28;20210;-75
2021/11/01 06:22:26;;;;;;;2.00;0.70;;;12.70;99.90;;;;;;5055557;28;20310;-74
2021/11/01 06:24:55;;;;;;;0.75;0.75;;;12.70;99.90;;;;;;5055625;28;20293;-75
2021/11/01 06:27:23;;;;;;;0.80;0.80;;;12.80;99.90;;;;;;5055576;28;20227;-75
2021/11/01 06:30:04;;;;;;;1.50;0.75;;;12.70;99.90;;;;;;5055572;28;20200;-75
2021/11/01 06:32:37;;;;;;;1.15;0.88;;;12.60;99.90;;;;;;5055449;28;20319;-74
2021/11/01 06:43:21;;;;;;;0.82;0.60;;;12.50;99.90;;;;;;5054986;28;20563;-74
2021/11/01 06:51:38;;;;;;;1.88;0.50;;;12.60;99.90;;;;;;5055034;28;20288;-74
2021/11/01 06:54:28;;;;;;;0.80;0.70;;;12.50;99.90;;;;;;5055221;28;20203;-75
2021/11/01 06:57:15;;;;;;;0.47;0.45;;;12.40;99.90;;;;;;5055116;28;20191;-74
2021/11/01 07:16:28;;;;;;;0.40;0.30;;;12.00;99.90;;;;;;5054696;28;20605;-74
2021/11/01 07:19:00;;;;;;;2.35;0.47;;;11.90;99.90;;;;;;5055014;28;20745;-74
2021/11/01 07:21:53;;;;;;;2.25;1.50;;;11.80;99.90;;;;;;5054362;28;20239;-74
2021/11/01 07:24:52;;;;;;;0.40;0.30;;;11.70;99.90;;;;;;5054445;28;20206;-74
2021/11/01 07:30:42;;;;;;;1.70;0.38;;;11.60;99.90;;;;;;5054795;28;20198;-74
2021/11/01 07:39:03;;;;;;;2.65;0.50;;;11.50;99.90;;;;;;5054404;28;20720;-74
2021/11/01 08:23:24;;;;;;;0.50;0.40;;;11.30;99.90;;;;;;4982098;28;20652;-74
2021/11/01 08:28:48;;;;;;;0.70;0.70;;;11.40;99.90;;;;;;5053444;28;20405;-74
2021/11/01 08:37:20;;;;;;;0.60;0.60;;;11.50;99.90;;;;;;5017845;28;20212;-74
2021/11/01 08:43:11;;;;;;;1.00;0.90;;;11.40;99.90;;;;;;5052995;28;20302;-73
2021/11/01 08:46:10;;;;;;;3.72;0.70;;;11.40;99.90;;;;;;5053237;28;20661;-73
2021/11/01 09:03:19;;;;;;;0.45;0.45;;;11.60;99.90;;;;;;5033761;28;20230;-74
2021/11/01 09:19:59;;;;;;;0.60;0.50;;;11.60;99.90;;;;;;5091124;28;20286;-74
2021/11/01 09:25:10;;;;;;;5.80;0.60;;;11.60;99.90;;;;;;5091134;28;20189;-73
2021/11/01 09:27:38;;;;;;;0.50;0.50;;;11.70;99.90;;;;;;5091002;28;20292;-74
2021/11/01 09:30:27;;;;;;;1.25;0.60;;;11.70;99.90;;;;;;5090881;28;20244;-74
2021/11/01 09:35:56;;;;;;;0.65;0.65;;;11.70;99.90;;;;;;5090905;28;20240;-74
2021/11/01 09:38:53;;;;;;;0.68;0.68;;;11.80;99.90;;;;;;5090833;28;20616;-74
2021/11/01 09:41:19;;;;;;;0.77;0.57;;;11.80;99.90;;;;;;5090350;28;20222;-73
2021/11/01 09:43:49;;;;;;;0.63;0.55;;;11.80;99.90;;;;;;5090398;28;20198;-74
2021/11/01 09:46:19;;;;;;;0.52;0.52;;;11.80;99.90;;;;;;5090422;28;20706;-74
2021/11/01 09:48:46;;;;;;;1.67;0.80;;;11.80;99.90;;;;;;5090530;28;20199;-74
2021/11/01 09:51:13;;;;;;;0.55;0.40;;;11.80;99.90;;;;;;5090237;28;20249;-73
2021/11/01 09:53:41;;;;;;;0.80;0.70;;;11.80;99.90;;;;;;5090302;28;20637;-74
2021/11/01 09:56:20;;;;;;;0.90;0.65;;;11.80;99.90;;;;;;5090410;28;20212;-74
2021/11/01 10:01:34;;;;;;;0.70;0.70;;;11.90;99.90;;;;;;5089948;28;20286;-73
2021/11/01 10:04:02;;;;;;;4.05;2.95;;;12.00;99.90;;;;;;5090283;28;20199;-74
2021/11/01 10:06:30;;;;;;;0.73;0.73;;;12.10;99.90;;;;;;5090188;28;20198;-74
2021/11/01 10:09:00;;;;;;;0.85;0.85;;;12.10;99.90;;;;;;5089914;28;20242;-74
2021/11/01 10:11:29;;;;;;;0.70;0.50;;;12.10;99.90;;;;;;5089600;28;20791;-73
2021/11/01 10:13:58;;;;;;;0.60;0.60;;;12.10;99.90;;;;;;5089802;28;20226;-74
2021/11/01 10:19:29;;;;;;;1.50;0.80;;;12.00;99.90;;;;;;5090080;28;20210;-74
2021/11/01 10:21:59;;;;;;;0.40;0.40;;;11.90;99.90;;;;;;5089789;28;20253;-73
2021/11/01 10:24:28;;;;;;;0.95;0.85;;;11.90;99.90;;;;;;5083585;28;20657;-74
2021/11/01 10:26:57;;;;;;;0.50;0.47;;;11.90;99.90;;;;;;5076309;28;20628;-74
2021/11/01 10:29:24;;;;;;;1.23;0.55;;;11.90;99.90;;;;;;5076270;28;20202;-74
2021/11/01 10:31:52;;;;;;;1.48;0.60;;;11.80;99.90;;;;;;5075810;28;20704;-73
2021/11/01 10:34:27;;;;;;;0.60;0.57;;;11.80;99.90;;;;;;5076126;28;20226;-74
2021/11/01 10:36:57;;;;;;;0.50;0.40;;;11.90;99.90;;;;;;5076184;28;20580;-74
2021/11/01 10:39:25;;;;;;;0.70;0.70;;;12.00;99.90;;;;;;5076119;28;20660;-73
2021/11/01 10:41:57;;;;;;;0.80;0.60;;;11.90;99.90;;;;;;5075683;28;20660;-73
2021/11/01 10:44:46;;;;;;;0.50;0.50;;;12.10;99.90;;;;;;5076095;28;20284;-74
2021/11/01 11:12:14;;;;;;;0.80;0.77;;;12.20;99.90;;;;;;5075082;28;20222;-74
2021/11/01 11:14:43;;;;;;;0.50;0.40;;;12.20;99.90;;;;;;5075443;28;20223;-74
2021/11/01 11:17:27;;;;;;;0.60;0.60;;;12.20;99.90;;;;;;5075362;28;20736;-74
2021/11/01 11:20:21;;;;;;;0.60;0.60;;;12.30;99.90;;;;;;5075451;28;20214;-74
2021/11/01 11:23:10;;;;;;;0.80;0.73;;;12.30;99.90;;;;;;5075095;28;20218;-73
2021/11/01 11:28:52;;;;;;;0.70;0.70;;;12.20;99.90;;;;;;5034258;28;20195;-74
2021/11/01 11:48:17;;;;;;;0.70;0.70;;;12.50;99.90;;;;;;5074919;28;20193;-74
2021/11/01 11:50:45;;;;;;;1.02;1.02;;;12.60;99.90;;;;;;5074646;28;20259;-74
2021/11/01 11:53:15;;;;;;;0.80;0.80;;;12.60;99.90;;;;;;5074477;28;20254;-73
2021/11/01 11:55:42;;;;;;;1.63;1.00;;;12.70;99.90;;;;;;5074664;28;20214;-74
2021/11/01 11:58:12;;;;;;;1.08;1.00;;;12.60;99.90;;;;;;5074577;28;20234;-74
2021/11/01 12:00:41;;;;;;;0.77;0.77;;;12.50;99.90;;;;;;5074460;28;20298;-74
2021/11/01 12:03:10;;;;;;;1.17;0.80;;;12.40;99.90;;;;;;5074064;28;20293;-73
2021/11/01 12:05:41;;;;;;;1.00;0.88;;;12.40;99.90;;;;;;5074298;28;20238;-74
2021/11/01 12:08:12;;;;;;;1.02;1.00;;;12.30;99.90;;;;;;5074425;28;20202;-74
2021/11/01 12:11:12;;;;;;;0.90;0.90;;;12.40;99.90;;;;;;5074310;28;20204;-74
2021/11/01 12:19:10;;;;;;;0.90;0.82;;;12.40;99.90;;;;;;5074244;28;20244;-74
2021/11/01 12:21:41;;;;;;;1.15;0.82;;;12.40;99.90;;;;;;5073858;28;20233;-74
2021/11/01 12:24:09;;;;;;;1.35;1.10;;;12.50;99.90;;;;;;5074159;28;20210;-74
2021/11/01 12:26:43;;;;;;;1.23;1.10;;;12.50;99.90;;;;;;5074065;28;20255;-74
2021/11/01 12:29:12;;;;;;;1.40;1.30;;;12.50;99.90;;;;;;5074091;28;20210;-74
2021/11/01 12:31:41;;;;;;;1.10;1.10;;;12.50;99.90;;;;;;5073705;28;20222;-73
2021/11/01 12:34:13;;;;;;;1.17;1.08;;;12.50;99.90;;;;;;5073777;28;20269;-74
2021/11/01 12:36:47;;;;;;;1.65;1.30;;;12.40;99.90;;;;;;5073968;28;20203;-74
2021/11/01 12:39:21;;;;;;;1.60;1.05;;;12.30;99.90;;;;;;5073944;28;20276;-74
2021/11/01 12:42:23;;;;;;;1.77;1.00;;;12.30;99.90;;;;;;5073544;28;20233;-73
2021/11/01 12:59:12;;;;;;;1.70;1.60;;;12.40;99.90;;;;;;5073668;28;20194;-74
2021/11/01 13:01:47;;;;;;;1.25;1.15;;;12.30;99.90;;;;;;5073209;28;20693;-73
2021/11/01 13:04:20;;;;;;;2.45;1.60;;;12.40;99.90;;;;;;5073693;28;20289;-74
2021/11/01 13:07:01;;;;;;;1.63;1.52;;;12.40;99.90;;;;;;5073800;28;20228;-74
2021/11/01 13:09:32;;;;;;;1.70;1.60;;;12.30;99.90;;;;;;5073727;28;20230;-74
2021/11/01 13:12:14;;;;;;;2.00;1.65;;;12.40;99.90;;;;;;5073484;28;20230;-74
2021/11/01 13:14:56;;;;;;;1.50;1.40;;;12.40;99.90;;;;;;5073605;28;20764;-74
2021/11/01 13:20:19;;;;;;;2.25;1.70;;;12.30;99.90;;;;;;5073977;28;20197;-73
2021/11/01 13:22:47;;;;;;;2.50;1.83;;;12.20;99.90;;;;;;5073445;28;20317;-73
2021/11/01 13:25:20;;;;;;;1.63;1.52;;;12.30;99.90;;;;;;5073580;28;20203;-73
2021/11/01 13:27:58;;;;;;;2.50;1.40;;;12.30;99.90;;;;;;5073558;28;20199;-73
2021/11/01 13:36:29;;;;;;;1.52;1.40;;;12.40;99.90;;;;;;5073397;28;20684;-73
2021/11/01 13:39:00;;;;;;;2.58;1.60;;;12.40;99.90;;;;;;5073137;28;20207;-74
2021/11/01 13:41:29;;;;;;;2.05;1.80;;;12.50;99.90;;;;;;5073016;28;20234;-73
2021/11/01 13:44:07;;;;;;;1.50;1.40;;;12.40;99.90;;;;;;5073208;28;20272;-74
2021/11/01 13:46:44;;;;;;;1.92;1.30;;;12.40;99.90;;;;;;5073197;28;20211;-74
2021/11/01 13:49:13;;;;;;;2.38;1.90;;;12.40;99.90;;;;;;5073092;28;20569;-73
2021/11/01 13:51:42;;;;;;;2.55;1.90;;;12.40;99.90;;;;;;5072737;28;20743;-73
2021/11/01 13:54:12;;;;;;;1.50;1.40;;;12.40;99.90;;;;;;5073362;28;20230;-73
2021/11/01 13:56:42;;;;;;;2.25;1.70;;;12.40;99.90;;;;;;5073509;28;20298;-73
2021/11/01 13:59:24;;;;;;;1.90;1.75;;;12.40;99.90;;;;;;5073836;28;20203;-73
2021/11/01 14:02:15;;;;;;;2.60;1.55;;;12.40;99.90;;;;;;5076442;28;20226;-73
2021/11/01 14:13:04;;;;;;;2.40;2.20;;;12.40;99.90;;;;;;5076245;28;20287;-74
2021/11/01 14:18:42;;;;;;;1.85;1.75;;;12.40;99.90;;;;;;5028538;28;20195;-74
2021/11/01 14:27:15;;;;;;;2.17;1.92;;;12.40;99.90;;;;;;5001799;28;20189;-74
2021/11/01 14:30:03;;;;;;;2.00;1.80;;;12.40;99.90;;;;;;5076209;28;20213;-73
2021/11/01 14:32:55;;;;;;;3.00;1.85;;;12.40;99.90;;;;;;5076241;28;20313;-73
2021/11/01 14:55:49;;;;;;;2.38;1.70;;;12.30;99.90;;;;;;5075894;28;20684;-74
2021/11/01 15:12:48;;;;;;;1.50;1.40;;;12.10;99.90;;;;;;4993547;28;20308;-74
2021/11/01 15:18:17;;;;;;;1.75;1.40;;;12.20;99.90;;;;;;5062968;28;20199;-74
2021/11/01 15:23:46;;;;;;;1.60;1.50;;;12.30;99.90;;;;;;5074899;28;20194;-74
2021/11/01 15:29:32;;;;;;;2.20;1.80;;;12.30;99.90;;;;;;5040902;28;20203;-74
2021/11/01 15:40:30;;;;;;;2.10;1.90;;;12.30;99.90;;;;;;5074800;28;20194;-74
2021/11/01 16:18:43;;;;;;;3.17;2.28;;;12.00;99.90;;;;;;5074399;28;20194;-74
2021/11/01 16:21:11;;;;;;;2.20;2.00;;;12.00;99.90;;;;;;5073905;28;20219;-73
2021/11/01 16:23:38;;;;;;;2.65;2.00;;;12.00;99.90;;;;;;5073622;28;20199;-74
2021/11/01 16:26:16;;;;;;;2.40;2.20;;;12.10;99.90;;;;;;5074082;28;20202;-74
2021/11/01 16:28:43;;;;;;;2.70;2.15;;;12.00;99.90;;;;;;5073950;28;20676;-74
2021/11/01 16:31:26;;;;;;;3.35;2.45;;;11.90;99.90;;;;;;5073643;28;20779;-73
2021/11/01 16:33:58;;;;;;;2.40;2.20;;;11.80;99.90;;;;;;5073922;28;20219;-74
2021/11/01 16:36:41;;;;;;;2.70;2.05;;;11.80;99.90;;;;;;5073966;28;20213;-74
2021/11/01 16:39:10;;;;;;;2.58;2.20;;;11.80;99.90;;;;;;5073933;28;20206;-74
2021/11/01 16:41:37;;;;;;;3.20;2.00;;;11.80;99.90;;;;;;5073438;28;20318;-73
2021/11/01 16:44:14;;;;;;;2.95;2.15;;;11.80;99.90;;;;;;5073821;28;20198;-74
2021/11/01 16:46:43;;;;;;;2.20;2.00;;;11.70;99.90;;;;;;5074051;28;20217;-74
2021/11/01 16:49:11;;;;;;;2.40;1.90;;;11.70;99.90;;;;;;5073807;28;20206;-73
2021/11/01 16:51:40;;;;;;;2.22;2.00;;;11.70;99.90;;;;;;5073285;28;20708;-73
2021/11/01 16:54:09;;;;;;;1.90;1.80;;;11.80;99.90;;;;;;5073634;28;20314;-74
2021/11/01 16:56:49;;;;;;;1.95;1.80;;;11.80;99.90;;;;;;5073644;28;20203;-73
2021/11/01 16:59:29;;;;;;;2.45;1.92;;;11.80;99.90;;;;;;5073698;28;20206;-74
2021/11/01 17:02:06;;;;;;;3.13;2.03;;;11.80;99.90;;;;;;5073482;28;20230;-73
2021/11/01 17:04:37;;;;;;;2.92;2.22;;;11.80;99.90;;;;;;5073562;28;20297;-74
2021/11/01 17:07:12;;;;;;;2.30;2.10;;;11.90;99.90;;;;;;5073644;28;20569;-74
2021/11/01 17:24:05;;;;;;;1.67;1.58;;;12.00;99.90;;;;;;5025422;28;20191;-74
2021/11/01 17:26:44;;;;;;;2.20;1.88;;;12.00;99.90;;;;;;5073428;28;20213;-74
2021/11/01 17:29:40;;;;;;;2.45;1.85;;;12.00;99.90;;;;;;5073449;28;20229;-74
2021/11/01 17:35:10;;;;;;;3.20;2.90;;;11.90;99.90;;;;;;5074927;28;20225;-74
2021/11/01 17:37:45;;;;;;;3.53;3.10;;;11.90;99.90;;;;;;5077405;28;20209;-73
2021/11/01 18:41:36;;;;;;;5.22;2.95;;;11.10;99.90;;;;;;5111626;27;20868;-73
2021/11/01 18:44:29;;;;;;;3.00;2.13;;;11.10;99.90;;;;;;5111422;28;20288;-74
2021/11/01 18:52:33;;;;;;;2.97;2.15;;;11.30;99.90;;;;;;5111162;28;20282;-73
2021/11/01 18:55:04;;;;;;;3.08;2.47;;;11.40;99.90;;;;;;5111396;28;20582;-73
2021/11/01 18:57:35;;;;;;;2.17;1.80;;;11.30;99.90;;;;;;5111214;28;20216;-74
2021/11/01 19:00:05;;;;;;;3.15;2.40;;;11.40;99.90;;;;;;5110930;28;20315;-74
2021/11/01 19:02:41;;;;;;;2.10;1.90;;;11.40;99.90;;;;;;5110925;28;20252;-74
2021/11/01 19:05:14;;;;;;;4.15;1.70;;;11.30;99.90;;;;;;5111148;28;20691;-74
2021/11/01 19:07:47;;;;;;;3.30;1.75;;;11.20;99.90;;;;;;5111077;28;20205;-74
2021/11/01 20:03:16;;;;;;;0.93;0.85;;;10.80;99.90;;;;;;5096123;28;20271;-73
2021/11/01 20:05:47;;;;;;;1.08;0.82;;;10.70;99.90;;;;;;5096409;28;20205;-74
2021/11/01 20:08:31;;;;;;;1.55;0.90;;;10.70;99.90;;;;;;5096305;28;20567;-74
2021/11/01 20:13:55;;;;;;;1.25;1.15;;;10.60;99.90;;;;;;5096029;28;20290;-74
2021/11/01 20:16:39;;;;;;;1.60;1.50;;;10.70;99.90;;;;;;5096220;28;20202;-74
2021/11/01 21:26:21;;;;;;;4.00;2.15;;;10.10;99.90;;;;;;5094628;28;20243;-74
2021/11/01 21:28:50;;;;;;;2.85;2.35;;;10.20;99.90;;;;;;5094642;28;20665;-74
2021/11/01 21:31:17;;;;;;;1.60;1.50;;;10.20;99.90;;;;;;5094384;28;20222;-74
2021/11/01 21:33:45;;;;;;;2.75;2.10;;;10.10;99.90;;;;;;5094553;28;20205;-74
2021/11/01 21:36:16;;;;;;;2.67;2.00;;;10.10;99.90;;;;;;5094634;28;20202;-74
2021/11/01 21:38:44;;;;;;;1.80;1.65;;;10.00;99.90;;;;;;5094626;28;20206;-74
2021/11/01 21:41:10;;;;;;;1.50;1.40;;;10.00;99.90;;;;;;5094008;28;20222;-73
2021/11/01 21:43:39;;;;;;;2.88;1.50;;;10.10;99.90;;;;;;5094525;28;20208;-73
2021/11/01 21:46:06;;;;;;;1.65;1.40;;;10.10;99.90;;;;;;5094464;28;20198;-74
2021/11/01 21:48:33;;;;;;;1.60;1.30;;;10.10;99.90;;;;;;5094129;28;20297;-74
2021/11/01 21:51:00;;;;;;;1.50;1.40;;;10.10;99.90;;;;;;5094123;28;20687;-73
2021/11/01 21:53:29;;;;;;;1.20;1.10;;;10.10;99.90;;;;;;5094130;28;20208;-74
2021/11/01 21:55:56;;;;;;;2.45;1.48;;;10.10;99.90;;;;;;5094302;28;20209;-74
2021/11/01 21:58:35;;;;;;;1.50;1.10;;;10.10;99.90;;;;;;5094177;28;20259;-74
2021/11/01 22:01:21;;;;;;;1.45;1.25;;;10.10;99.90;;;;;;5093881;28;20316;-74
2021/11/01 22:17:35;;;;;;;2.90;1.50;;;9.40;99.90;;;;;;5093713;28;20212;-74
2021/11/01 22:20:08;;;;;;;2.90;1.52;;;9.10;99.90;;;;;;5093812;28;20217;-74
2021/11/01 22:25:23;;;;;;;1.45;1.35;;;9.10;99.90;;;;;;5093500;28;20276;-74
2021/11/01 22:33:38;;;;;;;2.10;1.80;;;9.00;99.90;;;;;;5084146;28;20244;-74